createdAt,value
2023-05-09T00:00:00.454Z,14.67
2023-05-09T00:02:29.929Z,14.61
2023-05-09T00:04:59.465Z,14.55
2023-05-09T00:07:27.523Z,14.48
2023-05-09T00:09:55.566Z,14.41
2023-05-09T00:12:23.645Z,14.33
2023-05-09T00:14:54.351Z,14.27
2023-05-09T00:17:22.801Z,14.19
2023-05-09T00:19:51.132Z,14.13
2023-05-09T00:22:21.520Z,14.05
2023-05-09T00:24:49.810Z,14.01
2023-05-09T00:27:17.975Z,13.98
2023-05-09T00:29:46.319Z,13.94
2023-05-09T00:32:14.731Z,13.90
2023-05-09T00:34:42.900Z,13.86
2023-05-09T00:37:11.092Z,13.81
2023-05-09T00:39:40.850Z,13.76
2023-05-09T00:42:09.022Z,13.71
2023-05-09T00:44:37.081Z,13.65
2023-05-09T00:47:05.387Z,13.59
2023-05-09T00:49:33.704Z,13.54
2023-05-09T00:52:03.157Z,13.47
2023-05-09T00:54:31.268Z,13.41
2023-05-09T00:57:00.925Z,13.34
2023-05-09T00:59:29.226Z,13.27
2023-05-09T01:01:57.299Z,13.19
2023-05-09T01:04:25.978Z,13.12
2023-05-09T01:07:02.207Z,13.05
2023-05-09T01:09:38.302Z,12.96
2023-05-09T01:12:17.846Z,12.88
2023-05-09T01:14:56.060Z,12.81
2023-05-09T01:17:32.753Z,12.71
2023-05-09T01:20:06.896Z,12.64
2023-05-09T01:22:37.508Z,12.58
2023-05-09T01:25:37.306Z,12.52
2023-05-09T01:28:15.380Z,12.42
2023-05-09T01:30:47.951Z,12.35
2023-05-09T01:33:19.528Z,12.29
2023-05-09T01:35:52.586Z,12.22
2023-05-09T01:38:25.007Z,12.17
2023-05-09T01:40:56.167Z,12.12
2023-05-09T01:43:26.779Z,12.06
2023-05-09T01:45:57.348Z,12.02
2023-05-09T01:48:28.917Z,11.97
2023-05-09T01:50:57.717Z,11.93
2023-05-09T01:53:28.301Z,11.89
2023-05-09T01:55:57.811Z,11.82
2023-05-09T01:58:27.488Z,11.75
2023-05-09T02:00:57.266Z,11.70
2023-05-09T02:03:26.415Z,11.64
2023-05-09T02:05:56.345Z,11.60
2023-05-09T02:08:24.688Z,11.57
2023-05-09T02:10:53.161Z,11.56
2023-05-09T02:13:21.440Z,11.54
2023-05-09T02:15:49.712Z,11.52
2023-05-09T02:18:19.335Z,11.50
2023-05-09T02:20:47.573Z,11.50
2023-05-09T02:23:15.704Z,11.47
2023-05-09T02:25:44.491Z,11.43
2023-05-09T02:28:13.228Z,11.41
2023-05-09T02:30:45.415Z,11.36
2023-05-09T02:33:15.105Z,11.30
2023-05-09T02:35:47.490Z,11.27
2023-05-09T02:38:15.869Z,11.22
2023-05-09T02:40:44.732Z,11.18
2023-05-09T02:43:12.827Z,11.13
2023-05-09T02:45:40.861Z,11.09
2023-05-09T02:48:09.513Z,11.05
2023-05-09T02:50:39.611Z,11.00
2023-05-09T02:53:09.165Z,11.00
2023-05-09T02:55:37.245Z,10.99
2023-05-09T02:58:12.717Z,10.99
2023-05-09T03:00:43.995Z,11.00
2023-05-09T03:03:14.417Z,10.98
2023-05-09T03:05:42.507Z,10.99
2023-05-09T03:08:12.154Z,10.97
2023-05-09T03:10:40.214Z,10.95
2023-05-09T03:13:10.103Z,10.92
2023-05-09T03:15:38.196Z,10.90
2023-05-09T03:18:07.408Z,10.89
2023-05-09T03:20:35.429Z,10.90
2023-05-09T03:23:04.541Z,10.88
2023-05-09T03:25:34.363Z,10.89
2023-05-09T03:28:02.456Z,10.90
2023-05-09T03:30:31.008Z,10.93
2023-05-09T03:32:59.858Z,10.97
2023-05-09T03:35:28.045Z,10.98
2023-05-09T03:37:56.647Z,10.99
2023-05-09T03:40:24.643Z,11.00
2023-05-09T03:43:05.304Z,11.03
2023-05-09T03:45:33.565Z,11.05
2023-05-09T03:48:03.123Z,11.08
2023-05-09T03:50:31.456Z,11.13
2023-05-09T03:53:00.407Z,11.16
2023-05-09T03:55:28.728Z,11.19
2023-05-09T03:57:57.198Z,11.20
2023-05-09T04:00:27.573Z,11.24
2023-05-09T04:03:05.428Z,11.27
2023-05-09T04:05:39.206Z,11.32
2023-05-09T04:08:10.110Z,11.37
2023-05-09T04:10:38.180Z,11.44
2023-05-09T04:13:06.289Z,11.51
2023-05-09T04:15:35.762Z,11.55
2023-05-09T04:18:04.236Z,11.58
2023-05-09T04:20:33.350Z,11.62
2023-05-09T04:23:02.257Z,11.65
2023-05-09T04:25:31.182Z,11.62
2023-05-09T04:27:59.376Z,11.64
2023-05-09T04:30:27.401Z,11.67
2023-05-09T04:32:57.824Z,11.75
2023-05-09T04:35:28.440Z,11.79
2023-05-09T04:37:56.455Z,11.84
2023-05-09T04:40:26.752Z,11.91
2023-05-09T04:42:59.711Z,12.02
2023-05-09T04:45:30.874Z,12.14
2023-05-09T04:48:01.959Z,12.29
2023-05-09T04:50:30.750Z,12.50
2023-05-09T04:52:58.807Z,12.69
2023-05-09T04:55:26.936Z,12.85
2023-05-09T04:57:56.814Z,12.94
2023-05-09T05:00:24.981Z,13.06
2023-05-09T05:02:53.098Z,13.24
2023-05-09T05:05:25.510Z,13.44
2023-05-09T05:07:55.323Z,13.64
2023-05-09T05:10:27.792Z,13.81
2023-05-09T05:13:03.697Z,13.99
2023-05-09T05:15:31.848Z,14.17
2023-05-09T05:18:00.795Z,14.35
2023-05-09T05:20:35.128Z,14.51
2023-05-09T05:23:03.238Z,14.67
2023-05-09T05:25:31.316Z,14.81
2023-05-09T05:28:01.628Z,14.98
2023-05-09T05:30:30.386Z,15.11
2023-05-09T05:32:59.664Z,15.37
2023-05-09T05:35:29.346Z,15.64
2023-05-09T05:37:59.900Z,15.87
2023-05-09T05:40:27.968Z,16.00
2023-05-09T05:42:57.000Z,16.09
2023-05-09T05:45:26.033Z,16.22
2023-05-09T05:47:57.280Z,16.29
2023-05-09T05:50:25.883Z,16.26
2023-05-09T05:52:59.054Z,16.20
2023-05-09T05:55:27.268Z,16.30
2023-05-09T05:57:55.490Z,16.34
2023-05-09T06:00:23.722Z,16.33
2023-05-09T06:02:59.698Z,16.45
2023-05-09T06:05:35.014Z,16.45
2023-05-09T06:08:05.029Z,16.53
2023-05-09T06:10:33.908Z,16.64
2023-05-09T06:13:01.986Z,16.84
2023-05-09T06:15:30.115Z,17.02
2023-05-09T06:17:58.325Z,17.23
2023-05-09T06:20:26.348Z,17.46
2023-05-09T06:22:55.163Z,17.69
2023-05-09T06:25:24.538Z,17.90
2023-05-09T06:27:52.554Z,18.05
2023-05-09T06:32:51.496Z,18.41
2023-05-09T06:35:19.642Z,18.54
2023-05-09T06:37:48.864Z,18.71
2023-05-09T06:40:17.487Z,18.82
2023-05-09T06:42:47.136Z,18.90
2023-05-09T06:45:16.424Z,19.03
2023-05-09T06:47:44.776Z,19.27
2023-05-09T06:50:12.995Z,19.39
2023-05-09T06:52:41.036Z,19.49
2023-05-09T06:55:10.515Z,19.57
2023-05-09T06:57:39.528Z,19.64
2023-05-09T07:00:10.796Z,19.76
2023-05-09T07:02:42.058Z,19.90
2023-05-09T07:05:11.222Z,19.96
2023-05-09T07:07:39.367Z,20.06
2023-05-09T07:10:11.819Z,20.20
2023-05-09T07:12:40.710Z,20.26
2023-05-09T07:15:11.611Z,20.30
2023-05-09T07:17:39.778Z,20.29
2023-05-09T07:20:09.844Z,20.30
2023-05-09T07:22:38.022Z,20.29
2023-05-09T07:25:08.787Z,20.36
2023-05-09T07:27:37.047Z,20.48
2023-05-09T07:30:05.661Z,20.47
2023-05-09T07:32:35.020Z,20.50
2023-05-09T07:35:03.429Z,20.64
2023-05-09T07:37:31.511Z,20.75
2023-05-09T07:39:59.556Z,20.71
2023-05-09T07:42:27.694Z,20.86
2023-05-09T07:44:56.375Z,21.12
2023-05-09T07:47:24.735Z,21.15
2023-05-09T07:49:54.304Z,21.16
2023-05-09T07:52:22.269Z,21.22
2023-05-09T07:54:50.724Z,21.27
2023-05-09T07:57:19.025Z,21.36
2023-05-09T07:59:47.090Z,21.30
2023-05-09T08:02:15.144Z,21.22
2023-05-09T08:04:44.033Z,21.23
2023-05-09T08:07:13.423Z,21.32
2023-05-09T08:09:41.483Z,21.41
2023-05-09T08:12:09.856Z,21.58
2023-05-09T08:14:37.978Z,21.80
2023-05-09T08:17:05.995Z,22.12
2023-05-09T08:19:34.013Z,22.07
2023-05-09T08:22:02.080Z,21.91
2023-05-09T08:24:31.996Z,21.95
2023-05-09T08:27:00.079Z,22.10
2023-05-09T08:29:28.999Z,22.35
2023-05-09T08:31:57.161Z,22.54
2023-05-09T08:34:25.414Z,22.75
2023-05-09T08:36:53.493Z,22.96
2023-05-09T08:39:21.520Z,23.22
2023-05-09T08:41:51.564Z,23.35
2023-05-09T08:44:21.717Z,23.29
2023-05-09T08:46:53.426Z,23.31
2023-05-09T08:49:22.483Z,23.31
2023-05-09T08:51:51.009Z,23.34
2023-05-09T08:54:22.675Z,23.23
2023-05-09T08:56:52.761Z,23.42
2023-05-09T08:59:20.818Z,23.51
2023-05-09T09:01:49.070Z,23.71
2023-05-09T09:04:17.255Z,23.84
2023-05-09T09:06:45.941Z,23.80
2023-05-09T09:09:16.311Z,23.64
2023-05-09T09:11:45.751Z,23.55
2023-05-09T09:14:20.871Z,23.60
2023-05-09T09:16:51.114Z,23.56
2023-05-09T09:19:19.994Z,23.61
2023-05-09T09:21:48.333Z,23.56
2023-05-09T09:24:22.925Z,23.43
2023-05-09T09:26:52.229Z,23.30
2023-05-09T09:29:23.250Z,23.01
2023-05-09T09:31:55.065Z,22.75
2023-05-09T09:34:24.533Z,22.54
2023-05-09T09:36:52.503Z,22.44
2023-05-09T09:39:21.790Z,22.40
2023-05-09T09:41:49.904Z,22.30
2023-05-09T09:44:19.763Z,22.20
2023-05-09T09:46:51.401Z,21.98
2023-05-09T09:49:21.265Z,22.01
2023-05-09T09:51:52.956Z,21.96
2023-05-09T09:54:21.325Z,22.12
2023-05-09T09:56:50.358Z,22.30
2023-05-09T09:59:19.698Z,22.38
2023-05-09T10:02:00.313Z,22.66
2023-05-09T10:04:30.352Z,23.06
2023-05-09T10:06:59.862Z,23.28
2023-05-09T10:09:29.442Z,23.40
2023-05-09T10:11:58.324Z,23.53
2023-05-09T10:14:27.514Z,23.62
2023-05-09T10:16:57.493Z,23.59
2023-05-09T10:19:29.701Z,23.60
2023-05-09T10:21:59.154Z,23.65
2023-05-09T10:24:29.906Z,23.62
2023-05-09T10:27:12.955Z,23.56
2023-05-09T10:29:46.165Z,23.48
2023-05-09T10:32:20.580Z,23.35
2023-05-09T10:34:54.202Z,23.23
2023-05-09T10:37:23.095Z,23.21
2023-05-09T10:39:53.940Z,23.14
2023-05-09T10:42:23.947Z,23.15
2023-05-09T10:44:53.965Z,23.31
2023-05-09T10:47:23.478Z,23.50
2023-05-09T10:49:53.402Z,23.80
2023-05-09T10:52:22.689Z,24.13
2023-05-09T10:55:01.092Z,24.42
2023-05-09T10:57:31.254Z,24.60
2023-05-09T11:00:00.325Z,24.93
2023-05-09T11:02:31.099Z,25.31
2023-05-09T11:05:17.602Z,25.40
2023-05-09T11:07:45.710Z,25.47
2023-05-09T11:10:17.767Z,25.57
2023-05-09T11:12:57.918Z,25.78
2023-05-09T11:15:27.699Z,25.92
2023-05-09T11:18:06.981Z,26.05
2023-05-09T11:20:37.193Z,26.17
2023-05-09T11:23:06.159Z,26.27
2023-05-09T11:25:34.361Z,26.48
2023-05-09T11:28:03.101Z,26.64
2023-05-09T11:30:42.048Z,26.81
2023-05-09T11:33:23.956Z,26.94
2023-05-09T11:36:18.385Z,26.85
2023-05-09T11:38:47.105Z,26.74
2023-05-09T11:41:15.568Z,26.64
2023-05-09T11:43:44.445Z,26.64
2023-05-09T11:46:12.829Z,26.65
2023-05-09T11:48:42.285Z,26.79
2023-05-09T11:51:18.989Z,26.87
2023-05-09T11:53:50.662Z,27.02
2023-05-09T11:56:19.013Z,27.22
2023-05-09T11:58:47.177Z,27.42
2023-05-09T12:01:15.317Z,27.36
2023-05-09T12:03:45.472Z,27.29
2023-05-09T12:06:18.254Z,27.02
2023-05-09T12:08:47.190Z,26.89
2023-05-09T12:11:16.164Z,26.74
2023-05-09T12:13:48.553Z,26.77
2023-05-09T12:16:17.511Z,26.83
2023-05-09T12:18:48.144Z,26.85
2023-05-09T12:21:18.147Z,26.81
2023-05-09T12:23:48.942Z,26.77
2023-05-09T12:26:18.993Z,26.53
2023-05-09T12:28:48.534Z,26.53
2023-05-09T12:31:18.562Z,26.39
2023-05-09T12:33:46.960Z,26.34
2023-05-09T12:36:16.104Z,26.26
2023-05-09T12:38:55.351Z,26.04
2023-05-09T12:43:56.066Z,26.19
2023-05-09T12:46:24.311Z,26.20
2023-05-09T12:48:52.520Z,26.23
2023-05-09T12:51:21.675Z,26.24
2023-05-09T12:53:50.168Z,26.28
2023-05-09T12:56:22.968Z,26.18
2023-05-09T12:58:52.433Z,26.16
2023-05-09T13:01:21.320Z,26.06
2023-05-09T13:03:53.350Z,26.13
2023-05-09T13:06:21.719Z,26.11
2023-05-09T13:09:00.077Z,26.00
2023-05-09T13:11:30.025Z,26.15
2023-05-09T13:13:59.044Z,26.25
2023-05-09T13:16:27.193Z,26.13
2023-05-09T13:18:55.237Z,26.23
2023-05-09T13:21:23.322Z,26.26
2023-05-09T13:23:52.181Z,26.26
2023-05-09T13:26:21.294Z,26.26
2023-05-09T13:28:50.781Z,26.43
2023-05-09T13:31:20.042Z,26.39
2023-05-09T13:33:50.002Z,26.30
2023-05-09T13:36:19.766Z,26.51
2023-05-09T13:38:47.863Z,26.57
2023-05-09T13:41:20.355Z,26.75
2023-05-09T13:43:49.950Z,26.62
2023-05-09T13:46:18.106Z,26.51
2023-05-09T13:48:47.750Z,26.58
2023-05-09T13:51:15.926Z,26.21
2023-05-09T13:53:43.988Z,26.12
2023-05-09T13:56:12.076Z,26.04
2023-05-09T13:58:40.097Z,26.06
2023-05-09T14:01:09.547Z,25.83
2023-05-09T14:03:37.740Z,25.74
2023-05-09T14:06:06.182Z,25.55
2023-05-09T14:08:34.643Z,25.53
2023-05-09T14:11:02.917Z,25.45
2023-05-09T14:13:32.031Z,25.19
2023-05-09T14:16:00.381Z,24.83
2023-05-09T14:18:29.840Z,24.55
2023-05-09T14:20:58.045Z,24.31
2023-05-09T14:23:26.116Z,24.25
2023-05-09T14:25:54.187Z,24.12
2023-05-09T14:28:22.482Z,24.14
2023-05-09T14:30:50.558Z,24.22
2023-05-09T14:33:18.607Z,24.38
2023-05-09T14:35:48.044Z,24.34
2023-05-09T14:38:16.057Z,24.28
2023-05-09T14:40:44.098Z,24.25
2023-05-09T14:43:12.680Z,24.16
2023-05-09T14:45:40.766Z,24.08
2023-05-09T14:48:08.849Z,24.05
2023-05-09T14:50:36.933Z,23.87
2023-05-09T14:53:06.288Z,23.90
2023-05-09T14:55:34.376Z,23.97
2023-05-09T14:58:02.646Z,24.03
2023-05-09T15:00:30.889Z,24.07
2023-05-09T15:02:59.124Z,23.97
2023-05-09T15:05:27.412Z,23.95
2023-05-09T15:07:55.405Z,23.88
2023-05-09T15:10:24.792Z,23.78
2023-05-09T15:12:52.818Z,23.67
2023-05-09T15:15:23.346Z,23.60
2023-05-09T15:17:51.863Z,23.53
2023-05-09T15:20:20.295Z,23.59
2023-05-09T15:22:49.780Z,23.58
2023-05-09T15:25:19.697Z,23.53
2023-05-09T15:27:50.544Z,23.36
2023-05-09T15:30:18.721Z,23.24
2023-05-09T15:32:46.925Z,23.14
2023-05-09T15:35:15.907Z,23.04
2023-05-09T15:37:43.935Z,22.86
2023-05-09T15:40:13.364Z,22.71
2023-05-09T15:42:41.503Z,22.51
2023-05-09T15:45:11.807Z,22.38
2023-05-09T15:47:39.832Z,22.38
2023-05-09T15:50:08.732Z,22.40
2023-05-09T15:52:36.824Z,22.44
2023-05-09T15:55:05.197Z,22.48
2023-05-09T15:57:33.416Z,22.44
2023-05-09T16:00:01.435Z,22.37
2023-05-09T16:02:30.902Z,22.29
2023-05-09T16:04:59.043Z,22.20
2023-05-09T16:07:27.555Z,22.12
2023-05-09T16:09:55.567Z,21.98
2023-05-09T16:12:24.369Z,21.91
2023-05-09T16:14:52.353Z,21.87
2023-05-09T16:17:20.530Z,21.83
2023-05-09T16:19:49.951Z,21.74
2023-05-09T16:22:18.023Z,21.63
2023-05-09T16:24:46.507Z,21.45
2023-05-09T16:27:15.082Z,21.25
2023-05-09T16:29:43.140Z,21.09
2023-05-09T16:32:11.580Z,20.92
2023-05-09T16:34:39.977Z,20.78
2023-05-09T16:37:09.381Z,20.64
2023-05-09T16:39:37.472Z,20.53
2023-05-09T16:42:05.695Z,20.45
2023-05-09T16:44:33.943Z,20.43
2023-05-09T16:47:02.117Z,20.36
2023-05-09T16:49:30.112Z,20.31
2023-05-09T16:51:58.314Z,20.25
2023-05-09T16:54:27.683Z,20.17
2023-05-09T16:56:55.717Z,20.10
2023-05-09T16:59:23.826Z,19.97
2023-05-09T17:01:53.894Z,19.82
2023-05-09T17:04:21.984Z,19.69
2023-05-09T17:06:51.680Z,19.59
2023-05-09T17:09:20.025Z,19.53
2023-05-09T17:11:49.418Z,19.49
2023-05-09T17:14:17.451Z,19.47
2023-05-09T17:16:45.539Z,19.44
2023-05-09T17:19:13.596Z,19.40
2023-05-09T17:21:41.769Z,19.33
2023-05-09T17:24:10.435Z,19.27
2023-05-09T17:26:38.737Z,19.19
2023-05-09T17:29:08.116Z,19.13
2023-05-09T17:31:36.177Z,19.02
2023-05-09T17:34:04.355Z,18.95
2023-05-09T17:36:33.720Z,18.86
2023-05-09T17:39:01.913Z,18.80
2023-05-09T17:41:29.953Z,18.74
2023-05-09T17:43:58.243Z,18.66
2023-05-09T17:46:28.004Z,18.61
2023-05-09T17:48:56.268Z,18.49
2023-05-09T17:51:24.233Z,18.41
2023-05-09T17:53:53.062Z,18.32
2023-05-09T17:56:22.413Z,18.21
2023-05-09T17:58:53.085Z,18.14
2023-05-09T18:01:21.564Z,18.07
2023-05-09T18:03:51.069Z,18.01
2023-05-09T18:06:19.414Z,17.95
2023-05-09T18:08:47.562Z,17.89
2023-05-09T18:11:15.855Z,17.82
2023-05-09T18:13:43.875Z,17.77
2023-05-09T18:16:12.058Z,17.72
2023-05-09T18:18:40.318Z,17.66
2023-05-09T18:21:09.822Z,17.59
2023-05-09T18:23:38.182Z,17.53
2023-05-09T18:26:07.791Z,17.50
2023-05-09T18:28:39.445Z,17.42
2023-05-09T18:31:10.169Z,17.37
2023-05-09T18:33:39.140Z,17.31
2023-05-09T18:36:10.440Z,17.26
2023-05-09T18:38:39.928Z,17.20
2023-05-09T18:41:09.396Z,17.15
2023-05-09T18:43:38.797Z,17.10
2023-05-09T18:46:07.591Z,17.07
2023-05-09T18:48:35.653Z,17.04
2023-05-09T18:51:04.505Z,17.00
2023-05-09T18:53:34.709Z,16.97
2023-05-09T18:56:02.799Z,16.94
2023-05-09T18:58:31.141Z,16.92
2023-05-09T19:00:59.326Z,16.88
2023-05-09T19:03:27.473Z,16.86
2023-05-09T19:05:55.883Z,16.84
2023-05-09T19:08:23.932Z,16.81
2023-05-09T19:10:53.417Z,16.77
2023-05-09T19:13:21.642Z,16.75
2023-05-09T19:15:49.773Z,16.74
2023-05-09T19:18:17.875Z,16.69
2023-05-09T19:20:47.276Z,16.69
2023-05-09T19:23:15.638Z,16.64
2023-05-09T19:25:43.624Z,16.62
2023-05-09T19:28:14.632Z,16.61
2023-05-09T19:30:42.699Z,16.57
2023-05-09T19:33:11.525Z,16.52
2023-05-09T19:35:39.596Z,16.50
2023-05-09T19:38:07.592Z,16.45
2023-05-09T19:40:35.848Z,16.38
2023-05-09T19:43:03.857Z,16.33
2023-05-09T19:45:33.479Z,16.24
2023-05-09T19:48:01.686Z,16.18
2023-05-09T19:50:31.018Z,16.11
2023-05-09T19:52:59.736Z,16.06
2023-05-09T19:55:27.996Z,15.99
2023-05-09T19:57:56.075Z,15.94
2023-05-09T20:00:24.161Z,15.88
2023-05-09T20:02:53.694Z,15.83
2023-05-09T20:05:22.012Z,15.77
2023-05-09T20:07:50.484Z,15.73
2023-05-09T20:10:18.533Z,15.69
2023-05-09T20:12:46.657Z,15.68
2023-05-09T20:15:15.547Z,15.67
2023-05-09T20:17:44.663Z,15.65
2023-05-09T20:20:14.535Z,15.62
2023-05-09T20:22:42.887Z,15.59
2023-05-09T20:25:13.243Z,15.57
2023-05-09T20:27:41.225Z,15.56
2023-05-09T20:30:10.216Z,15.55
2023-05-09T20:32:38.397Z,15.52
2023-05-09T20:35:07.140Z,15.49
2023-05-09T20:37:36.728Z,15.45
2023-05-09T20:40:06.663Z,15.43
2023-05-09T20:42:34.960Z,15.41
2023-05-09T20:45:03.233Z,15.37
2023-05-09T20:47:31.358Z,15.35
2023-05-09T20:49:59.398Z,15.32
2023-05-09T20:52:27.481Z,15.30
2023-05-09T20:54:56.921Z,15.29
2023-05-09T20:57:25.119Z,15.27
2023-05-09T20:59:53.091Z,15.25
2023-05-09T21:02:21.325Z,15.22
2023-05-09T21:04:49.426Z,15.18
2023-05-09T21:07:19.199Z,15.15
2023-05-09T21:09:47.811Z,15.14
2023-05-09T21:12:17.270Z,15.12
2023-05-09T21:14:45.698Z,15.09
2023-05-09T21:17:13.897Z,15.07
2023-05-09T21:19:42.042Z,15.07
2023-05-09T21:22:10.500Z,15.05
2023-05-09T21:24:38.511Z,15.03
2023-05-09T21:27:06.744Z,15.03
2023-05-09T21:29:36.148Z,15.01
2023-05-09T21:32:04.153Z,14.99
2023-05-09T21:34:32.134Z,15.00
2023-05-09T21:37:00.371Z,14.97
2023-05-09T21:39:28.419Z,14.95
2023-05-09T21:41:56.395Z,14.94
2023-05-09T21:44:24.605Z,14.90
2023-05-09T21:46:54.074Z,14.88
2023-05-09T21:49:22.170Z,14.86
2023-05-09T21:51:50.265Z,14.83
2023-05-09T21:54:18.306Z,14.82
2023-05-09T21:56:46.354Z,14.79
2023-05-09T21:59:14.476Z,14.78
2023-05-09T22:01:44.358Z,14.77
2023-05-09T22:04:15.409Z,14.76
2023-05-09T22:06:43.985Z,14.75
2023-05-09T22:09:12.026Z,14.76
2023-05-09T22:11:40.000Z,14.75
2023-05-09T22:14:10.220Z,14.76
2023-05-09T22:16:38.535Z,14.76
2023-05-09T22:19:06.610Z,14.75
2023-05-09T22:21:35.966Z,14.75
2023-05-09T22:24:04.113Z,14.75
2023-05-09T22:26:33.180Z,14.74
2023-05-09T22:29:01.376Z,14.72
2023-05-09T22:31:29.396Z,14.72
2023-05-09T22:33:57.448Z,14.71
2023-05-09T22:36:25.961Z,14.70
2023-05-09T22:38:55.380Z,14.70
2023-05-09T22:41:23.403Z,14.69
2023-05-09T22:43:51.427Z,14.68
2023-05-09T22:46:19.494Z,14.67
2023-05-09T22:48:47.665Z,14.68
2023-05-09T22:51:16.083Z,14.66
2023-05-09T22:53:44.121Z,14.66
2023-05-09T22:56:14.032Z,14.66
2023-05-09T22:58:42.113Z,14.65
2023-05-09T23:01:10.147Z,14.66
2023-05-09T23:03:38.241Z,14.65
2023-05-09T23:06:06.560Z,14.65
2023-05-09T23:08:34.883Z,14.65
2023-05-09T23:11:03.215Z,14.65
2023-05-09T23:13:32.584Z,14.65
2023-05-09T23:16:00.672Z,14.66
2023-05-09T23:18:28.772Z,14.65
2023-05-09T23:20:56.786Z,14.65
2023-05-09T23:23:25.594Z,14.65
2023-05-09T23:25:53.703Z,14.63
2023-05-09T23:28:25.028Z,14.63
2023-05-09T23:30:55.014Z,14.62
2023-05-09T23:33:23.239Z,14.61
2023-05-09T23:35:51.243Z,14.62
2023-05-09T23:38:19.665Z,14.61
2023-05-09T23:40:47.785Z,14.60
2023-05-09T23:43:16.080Z,14.59
2023-05-09T23:45:44.104Z,14.59
2023-05-09T23:48:13.576Z,14.58
2023-05-09T23:50:41.652Z,14.58
2023-05-09T23:53:09.666Z,14.56
2023-05-09T23:55:37.644Z,14.56
2023-05-09T23:58:05.664Z,14.54
